createdAt,value
2022-10-31T00:01:02.999Z,9.30
2022-10-31T00:03:20.952Z,9.28
2022-10-31T00:05:38.029Z,9.24
2022-10-31T00:07:55.295Z,9.24
2022-10-31T00:10:12.207Z,9.28
2022-10-31T00:12:29.464Z,9.29
2022-10-31T00:14:46.460Z,9.27
2022-10-31T00:17:03.439Z,9.34
2022-10-31T00:19:21.504Z,9.34
2022-10-31T00:21:38.513Z,9.30
2022-10-31T00:23:56.474Z,9.29
2022-10-31T00:26:13.382Z,9.30
2022-10-31T00:28:30.621Z,9.27
2022-10-31T00:30:47.664Z,9.28
2022-10-31T00:33:04.633Z,9.29
2022-10-31T00:35:21.627Z,9.33
2022-10-31T00:37:38.661Z,9.36
2022-10-31T00:39:55.647Z,9.34
2022-10-31T00:42:12.928Z,9.32
2022-10-31T00:44:31.120Z,9.29
2022-10-31T00:46:48.133Z,9.28
2022-10-31T00:49:05.090Z,9.24
2022-10-31T00:51:23.100Z,9.23
2022-10-31T00:53:39.970Z,9.22
2022-10-31T00:55:57.993Z,9.22
2022-10-31T01:00:32.278Z,9.25
2022-10-31T01:02:49.303Z,9.29
2022-10-31T01:05:07.290Z,9.31
2022-10-31T01:07:24.482Z,9.33
2022-10-31T01:09:41.804Z,9.31
2022-10-31T01:11:58.804Z,9.27
2022-10-31T01:14:16.851Z,9.28
2022-10-31T01:16:33.874Z,9.28
2022-10-31T01:18:50.742Z,9.27
2022-10-31T01:21:07.764Z,9.28
2022-10-31T01:23:25.055Z,9.36
2022-10-31T01:25:42.047Z,9.33
2022-10-31T01:28:00.274Z,9.31
2022-10-31T01:30:17.863Z,9.27
2022-10-31T01:32:35.745Z,9.25
2022-10-31T01:34:52.768Z,9.26
2022-10-31T01:37:09.995Z,9.24
2022-10-31T01:39:27.200Z,9.26
2022-10-31T01:41:45.199Z,9.27
2022-10-31T01:44:02.416Z,9.27
2022-10-31T01:46:19.437Z,9.25
2022-10-31T01:48:36.677Z,9.27
2022-10-31T01:50:53.960Z,9.29
2022-10-31T01:53:11.478Z,9.30
2022-10-31T01:55:30.372Z,9.28
2022-10-31T01:57:47.544Z,9.30
2022-10-31T02:00:04.585Z,9.28
2022-10-31T02:02:21.950Z,9.26
2022-10-31T02:04:39.012Z,9.27
2022-10-31T02:06:56.981Z,9.26
2022-10-31T02:09:14.178Z,9.23
2022-10-31T02:11:31.162Z,9.23
2022-10-31T02:13:48.341Z,9.24
2022-10-31T02:16:05.340Z,9.26
2022-10-31T02:18:22.558Z,9.25
2022-10-31T02:20:39.786Z,9.22
2022-10-31T02:22:57.040Z,9.22
2022-10-31T02:25:14.351Z,9.21
2022-10-31T02:27:31.202Z,9.18
2022-10-31T02:29:51.373Z,9.15
2022-10-31T02:32:08.577Z,9.14
2022-10-31T02:34:25.899Z,9.14
2022-10-31T02:36:42.795Z,9.11
2022-10-31T02:38:59.731Z,9.12
2022-10-31T02:41:17.003Z,9.13
2022-10-31T02:43:34.239Z,9.09
2022-10-31T02:45:51.422Z,9.04
2022-10-31T02:48:08.710Z,9.03
2022-10-31T02:50:26.929Z,9.02
2022-10-31T02:52:43.899Z,9.00
2022-10-31T02:55:00.880Z,8.97
2022-10-31T02:57:17.824Z,8.98
2022-10-31T02:59:35.095Z,8.97
2022-10-31T03:01:53.114Z,8.98
2022-10-31T03:04:11.660Z,8.98
2022-10-31T03:06:28.659Z,8.97
2022-10-31T03:08:45.838Z,8.97
2022-10-31T03:11:03.068Z,8.96
2022-10-31T03:13:21.073Z,8.98
2022-10-31T03:15:38.307Z,8.97
2022-10-31T03:17:55.316Z,8.97
2022-10-31T03:20:12.245Z,8.95
2022-10-31T03:22:29.241Z,8.96
2022-10-31T03:24:46.303Z,8.98
2022-10-31T03:27:03.248Z,8.96
2022-10-31T03:29:20.578Z,8.96
2022-10-31T03:31:38.586Z,8.97
2022-10-31T03:33:55.820Z,8.98
2022-10-31T03:36:12.794Z,8.97
2022-10-31T03:38:30.815Z,8.96
2022-10-31T03:40:47.833Z,8.96
2022-10-31T03:43:05.096Z,8.94
2022-10-31T03:45:24.826Z,8.96
2022-10-31T03:47:41.878Z,8.95
2022-10-31T03:49:58.874Z,8.95
2022-10-31T03:52:16.146Z,8.95
2022-10-31T03:54:33.151Z,8.94
2022-10-31T03:56:50.181Z,8.95
2022-10-31T03:59:07.417Z,8.90
2022-10-31T04:01:24.482Z,8.90
2022-10-31T04:03:41.596Z,8.90
2022-10-31T04:05:58.551Z,8.88
2022-10-31T04:08:15.841Z,8.87
2022-10-31T04:10:33.783Z,8.86
2022-10-31T04:12:51.663Z,8.86
2022-10-31T04:15:08.640Z,8.84
2022-10-31T04:17:25.830Z,8.85
2022-10-31T04:19:43.140Z,8.83
2022-10-31T04:22:00.080Z,8.83
2022-10-31T04:24:16.954Z,8.85
2022-10-31T04:26:35.369Z,8.88
2022-10-31T04:28:53.282Z,8.88
2022-10-31T04:31:10.342Z,8.88
2022-10-31T04:33:27.253Z,8.88
2022-10-31T04:35:44.318Z,8.87
2022-10-31T04:38:01.530Z,8.86
2022-10-31T04:40:18.491Z,8.84
2022-10-31T04:42:35.495Z,8.82
2022-10-31T04:44:52.482Z,8.83
2022-10-31T04:47:09.668Z,8.83
2022-10-31T04:49:26.701Z,8.83
2022-10-31T04:51:43.612Z,8.82
2022-10-31T04:54:00.829Z,8.80
2022-10-31T04:56:17.746Z,8.78
2022-10-31T04:58:34.756Z,8.76
2022-10-31T05:00:52.039Z,8.75
2022-10-31T05:03:09.501Z,8.74
2022-10-31T05:05:27.774Z,8.77
2022-10-31T05:07:44.731Z,8.72
2022-10-31T05:10:02.041Z,8.68
2022-10-31T05:12:19.220Z,8.63
2022-10-31T05:14:36.143Z,8.62
2022-10-31T05:16:53.207Z,8.57
2022-10-31T05:19:10.212Z,8.54
2022-10-31T05:21:27.230Z,8.49
2022-10-31T05:23:47.492Z,8.45
2022-10-31T05:26:05.962Z,8.42
2022-10-31T05:28:23.400Z,8.37
2022-10-31T05:30:40.307Z,8.33
2022-10-31T05:32:57.836Z,8.29
2022-10-31T05:35:15.965Z,8.25
2022-10-31T05:37:33.232Z,8.24
2022-10-31T05:39:50.496Z,8.23
2022-10-31T05:42:07.523Z,8.20
2022-10-31T05:44:24.582Z,8.16
2022-10-31T05:46:41.563Z,8.11
2022-10-31T05:49:01.735Z,8.07
2022-10-31T05:51:19.664Z,8.03
2022-10-31T05:53:36.880Z,8.01
2022-10-31T05:55:54.151Z,7.99
2022-10-31T05:58:11.394Z,7.94
2022-10-31T06:00:28.320Z,7.92
2022-10-31T06:02:45.292Z,7.89
2022-10-31T06:05:02.578Z,7.85
2022-10-31T06:07:19.751Z,7.85
2022-10-31T06:09:36.691Z,7.83
2022-10-31T06:11:54.101Z,7.82
2022-10-31T06:14:11.341Z,7.79
2022-10-31T06:16:29.268Z,7.79
2022-10-31T06:18:46.108Z,7.75
2022-10-31T06:21:03.137Z,7.71
2022-10-31T06:23:20.181Z,7.67
2022-10-31T06:25:37.368Z,7.67
2022-10-31T06:27:54.351Z,7.66
2022-10-31T06:30:11.258Z,7.65
2022-10-31T06:32:28.525Z,7.64
2022-10-31T06:34:45.820Z,7.65
2022-10-31T06:37:03.821Z,7.65
2022-10-31T06:39:20.734Z,7.64
2022-10-31T06:41:38.343Z,7.63
2022-10-31T06:43:55.551Z,7.61
2022-10-31T06:46:12.846Z,7.60
2022-10-31T06:48:32.186Z,7.61
2022-10-31T06:50:49.215Z,7.63
2022-10-31T06:53:07.187Z,7.65
2022-10-31T06:55:24.486Z,7.69
2022-10-31T06:57:41.423Z,7.71
2022-10-31T06:59:58.459Z,7.71
2022-10-31T07:02:15.434Z,7.71
2022-10-31T07:04:32.855Z,7.73
2022-10-31T07:06:51.917Z,7.76
2022-10-31T07:09:09.131Z,7.80
2022-10-31T07:11:26.041Z,7.84
2022-10-31T07:13:42.998Z,7.92
2022-10-31T07:16:00.036Z,7.95
2022-10-31T07:18:18.100Z,7.98
2022-10-31T07:20:35.586Z,7.99
2022-10-31T07:22:52.821Z,8.01
2022-10-31T07:25:09.716Z,8.04
2022-10-31T07:27:26.699Z,8.06
2022-10-31T07:29:43.716Z,8.12
2022-10-31T07:32:00.704Z,8.16
2022-10-31T07:34:17.917Z,8.21
2022-10-31T07:36:34.946Z,8.27
2022-10-31T07:38:52.386Z,8.31
2022-10-31T07:41:09.607Z,8.36
2022-10-31T07:43:26.673Z,8.41
2022-10-31T07:45:44.283Z,8.49
2022-10-31T07:48:02.964Z,8.55
2022-10-31T07:50:21.116Z,8.61
2022-10-31T07:52:38.159Z,8.67
2022-10-31T07:54:55.463Z,8.72
2022-10-31T07:57:12.525Z,8.77
2022-10-31T07:59:29.514Z,8.85
2022-10-31T08:01:47.531Z,8.92
2022-10-31T08:04:04.791Z,8.97
2022-10-31T08:06:21.734Z,9.03
2022-10-31T08:08:39.797Z,9.09
2022-10-31T08:10:56.691Z,9.14
2022-10-31T08:13:13.785Z,9.20
2022-10-31T08:15:31.075Z,9.27
2022-10-31T08:17:48.421Z,9.33
2022-10-31T08:20:05.646Z,9.39
2022-10-31T08:22:22.655Z,9.44
2022-10-31T08:24:46.884Z,9.50
2022-10-31T08:27:03.937Z,9.58
2022-10-31T08:29:20.879Z,9.63
2022-10-31T08:31:42.621Z,9.67
2022-10-31T08:34:01.242Z,9.74
2022-10-31T08:36:18.581Z,9.80
2022-10-31T08:38:35.925Z,9.87
2022-10-31T08:40:52.973Z,9.95
2022-10-31T08:43:10.295Z,10.02
2022-10-31T08:45:27.632Z,10.11
2022-10-31T08:47:44.708Z,10.20
2022-10-31T08:50:02.874Z,10.28
2022-10-31T08:52:21.537Z,10.35
2022-10-31T08:54:39.543Z,10.39
2022-10-31T08:56:57.406Z,10.43
2022-10-31T08:59:14.478Z,10.48
2022-10-31T09:01:31.941Z,10.59
2022-10-31T09:03:49.330Z,10.63
2022-10-31T09:06:06.822Z,10.66
2022-10-31T09:08:25.268Z,10.70
2022-10-31T09:10:43.204Z,10.77
2022-10-31T09:13:00.181Z,10.81
2022-10-31T09:15:17.575Z,10.85
2022-10-31T09:17:35.338Z,10.97
2022-10-31T09:19:52.603Z,11.00
2022-10-31T09:22:09.850Z,11.04
2022-10-31T09:24:27.112Z,11.09
2022-10-31T09:26:44.266Z,11.14
2022-10-31T09:29:01.552Z,11.24
2022-10-31T09:31:18.611Z,11.32
2022-10-31T09:33:35.916Z,11.39
2022-10-31T09:35:52.974Z,11.47
2022-10-31T09:38:10.014Z,11.57
2022-10-31T09:40:27.290Z,11.63
2022-10-31T09:42:45.525Z,11.70
2022-10-31T09:45:02.464Z,11.77
2022-10-31T09:47:20.586Z,11.85
2022-10-31T09:49:41.620Z,11.91
2022-10-31T09:51:58.633Z,11.93
2022-10-31T09:54:16.054Z,12.01
2022-10-31T09:56:32.985Z,12.05
2022-10-31T09:58:50.725Z,12.10
2022-10-31T10:01:07.870Z,12.18
2022-10-31T10:03:26.423Z,12.19
2022-10-31T10:05:45.943Z,12.26
2022-10-31T10:08:04.877Z,12.34
2022-10-31T10:10:21.938Z,12.41
2022-10-31T10:12:40.352Z,12.48
2022-10-31T10:14:57.446Z,12.60
2022-10-31T10:17:14.760Z,12.64
2022-10-31T10:19:32.731Z,12.69
2022-10-31T10:21:50.088Z,12.76
2022-10-31T10:24:08.398Z,12.85
2022-10-31T10:26:25.465Z,12.91
2022-10-31T10:28:42.888Z,13.04
2022-10-31T10:31:00.996Z,13.13
2022-10-31T10:33:17.925Z,13.20
2022-10-31T10:35:35.938Z,13.29
2022-10-31T10:40:27.769Z,13.48
2022-10-31T10:42:44.811Z,13.54
2022-10-31T10:45:01.791Z,13.62
2022-10-31T10:47:18.846Z,13.69
2022-10-31T10:49:35.908Z,13.76
2022-10-31T10:54:29.912Z,13.99
2022-10-31T10:56:47.273Z,14.05
2022-10-31T10:59:06.394Z,14.07
2022-10-31T11:01:23.452Z,14.10
2022-10-31T11:03:40.582Z,14.14
2022-10-31T11:05:59.008Z,14.22
2022-10-31T11:08:21.500Z,14.29
2022-10-31T11:10:41.881Z,14.39
2022-10-31T11:12:59.525Z,14.45
2022-10-31T11:15:16.820Z,14.47
2022-10-31T11:17:34.181Z,14.49
2022-10-31T11:19:51.372Z,14.51
2022-10-31T11:22:09.104Z,14.54
2022-10-31T11:24:26.180Z,14.58
2022-10-31T11:26:43.267Z,14.68
2022-10-31T11:29:01.274Z,14.72
2022-10-31T11:31:20.651Z,14.77
2022-10-31T11:33:38.037Z,14.79
2022-10-31T11:35:57.903Z,14.82
2022-10-31T11:38:15.625Z,14.89
2022-10-31T11:40:32.834Z,14.96
2022-10-31T11:42:50.153Z,15.04
2022-10-31T11:45:07.142Z,15.10
2022-10-31T11:47:24.441Z,15.17
2022-10-31T11:49:41.909Z,15.23
2022-10-31T11:51:58.919Z,15.33
2022-10-31T11:54:16.239Z,15.43
2022-10-31T11:56:33.304Z,15.52
2022-10-31T11:58:50.337Z,15.62
2022-10-31T12:01:07.670Z,15.68
2022-10-31T12:03:24.723Z,15.74
2022-10-31T12:05:41.804Z,15.78
2022-10-31T12:08:03.450Z,15.80
2022-10-31T12:10:21.699Z,15.81
2022-10-31T12:12:39.063Z,15.79
2022-10-31T12:14:56.073Z,15.82
2022-10-31T12:17:13.154Z,15.86
2022-10-31T12:19:33.368Z,15.87
2022-10-31T12:21:51.398Z,15.96
2022-10-31T12:24:08.772Z,16.01
2022-10-31T12:26:25.807Z,16.03
2022-10-31T12:28:46.206Z,16.05
2022-10-31T12:31:06.379Z,16.04
2022-10-31T12:33:23.292Z,16.02
2022-10-31T12:35:42.299Z,16.02
2022-10-31T12:37:59.616Z,16.01
2022-10-31T12:40:16.963Z,16.01
2022-10-31T12:42:34.086Z,16.02
2022-10-31T12:44:51.313Z,15.96
2022-10-31T12:47:08.389Z,15.94
2022-10-31T12:49:31.446Z,15.89
2022-10-31T12:51:48.474Z,15.86
2022-10-31T12:54:07.729Z,15.86
2022-10-31T12:56:24.795Z,15.82
2022-10-31T12:58:42.782Z,15.82
2022-10-31T13:01:00.229Z,15.82
2022-10-31T13:03:18.143Z,15.85
2022-10-31T13:05:35.502Z,15.92
2022-10-31T13:07:52.873Z,15.95
2022-10-31T13:10:09.877Z,15.92
2022-10-31T13:12:27.321Z,15.90
2022-10-31T13:14:45.751Z,15.92
2022-10-31T13:17:02.883Z,16.01
2022-10-31T13:19:23.374Z,15.96
2022-10-31T13:21:40.629Z,15.94
2022-10-31T13:23:58.051Z,15.95
2022-10-31T13:26:16.112Z,15.93
2022-10-31T13:28:33.156Z,15.94
2022-10-31T13:30:53.265Z,15.96
2022-10-31T13:33:10.635Z,15.96
2022-10-31T13:35:28.017Z,15.95
2022-10-31T13:37:44.955Z,15.95
2022-10-31T13:40:03.063Z,16.00
2022-10-31T13:42:20.361Z,16.01
2022-10-31T13:44:38.648Z,16.03
2022-10-31T13:46:56.267Z,16.05
2022-10-31T13:49:13.290Z,16.09
2022-10-31T13:51:37.124Z,16.14
2022-10-31T13:53:54.214Z,16.18
2022-10-31T13:56:11.199Z,16.25
2022-10-31T13:58:28.291Z,16.28
2022-10-31T14:00:45.710Z,16.30
2022-10-31T14:03:02.889Z,16.33
2022-10-31T14:05:20.283Z,16.39
2022-10-31T14:07:37.599Z,16.39
2022-10-31T14:09:56.817Z,16.40
2022-10-31T14:12:13.813Z,16.42
2022-10-31T14:14:32.919Z,16.48
2022-10-31T14:16:55.533Z,16.53
2022-10-31T14:19:13.082Z,16.53
2022-10-31T14:21:30.122Z,16.51
2022-10-31T14:23:50.739Z,16.48
2022-10-31T14:26:11.473Z,16.46
2022-10-31T14:28:28.438Z,16.44
2022-10-31T14:30:45.843Z,16.40
2022-10-31T14:33:02.858Z,16.36
2022-10-31T14:35:21.506Z,16.34
2022-10-31T14:37:39.014Z,16.26
2022-10-31T14:39:56.088Z,16.19
2022-10-31T14:42:13.095Z,16.15
2022-10-31T14:44:30.116Z,16.07
2022-10-31T14:46:47.188Z,16.01
2022-10-31T14:49:04.174Z,15.96
2022-10-31T14:51:21.603Z,15.92
2022-10-31T14:53:39.463Z,15.89
2022-10-31T14:55:56.533Z,15.84
2022-10-31T14:58:13.680Z,15.80
2022-10-31T15:00:30.714Z,15.78
2022-10-31T15:02:48.032Z,15.79
2022-10-31T15:05:05.073Z,15.79
2022-10-31T15:07:24.962Z,15.77
2022-10-31T15:09:42.369Z,15.74
2022-10-31T15:11:59.726Z,15.71
2022-10-31T15:14:18.846Z,15.70
2022-10-31T15:16:35.790Z,15.81
2022-10-31T15:18:54.185Z,15.81
2022-10-31T15:21:12.495Z,15.76
2022-10-31T15:23:31.159Z,15.71
2022-10-31T15:25:48.238Z,15.65
2022-10-31T15:28:05.312Z,15.63
2022-10-31T15:30:22.308Z,15.56
2022-10-31T15:32:39.385Z,15.51
2022-10-31T15:34:56.326Z,15.45
2022-10-31T15:37:16.006Z,15.39
2022-10-31T15:39:32.937Z,15.33
2022-10-31T15:41:54.252Z,15.24
2022-10-31T15:44:11.879Z,15.15
2022-10-31T15:46:29.195Z,15.07
2022-10-31T15:48:46.450Z,14.98
2022-10-31T15:51:04.450Z,14.90
2022-10-31T15:53:21.491Z,14.83
2022-10-31T15:55:38.542Z,14.75
2022-10-31T15:57:55.407Z,14.64
2022-10-31T16:00:12.412Z,14.45
2022-10-31T16:02:29.811Z,14.30
2022-10-31T16:04:47.825Z,14.24
2022-10-31T16:07:05.134Z,14.18
2022-10-31T16:09:22.178Z,14.03
2022-10-31T16:11:40.104Z,13.90
2022-10-31T16:13:58.154Z,13.78
2022-10-31T16:16:34.211Z,13.70
2022-10-31T16:18:52.433Z,13.59
2022-10-31T16:21:09.673Z,13.53
2022-10-31T16:23:27.946Z,13.49
2022-10-31T16:25:45.182Z,13.46
2022-10-31T16:28:02.531Z,13.40
2022-10-31T16:30:19.814Z,13.37
2022-10-31T16:32:38.075Z,13.37
2022-10-31T16:34:55.352Z,13.28
2022-10-31T16:37:12.756Z,13.17
2022-10-31T16:39:29.758Z,13.09
2022-10-31T16:41:46.930Z,13.04
2022-10-31T16:44:04.184Z,13.01
2022-10-31T16:46:24.842Z,12.94
2022-10-31T16:48:42.038Z,12.81
2022-10-31T16:50:58.946Z,12.74
2022-10-31T16:53:15.978Z,12.69
2022-10-31T16:55:33.216Z,12.73
2022-10-31T16:57:50.135Z,12.66
2022-10-31T17:00:07.082Z,12.58
2022-10-31T17:02:24.224Z,12.48
2022-10-31T17:04:41.328Z,12.45
2022-10-31T17:06:58.333Z,12.40
2022-10-31T17:09:15.650Z,12.46
2022-10-31T17:11:33.629Z,12.54
2022-10-31T17:13:50.900Z,12.45
2022-10-31T17:16:07.833Z,12.36
2022-10-31T17:18:27.616Z,12.31
2022-10-31T17:20:45.930Z,12.29
2022-10-31T17:23:03.326Z,12.27
2022-10-31T17:25:20.739Z,12.21
2022-10-31T17:27:38.042Z,12.14
2022-10-31T17:29:55.009Z,12.10
2022-10-31T17:32:12.045Z,12.01
2022-10-31T17:34:30.073Z,12.00
2022-10-31T17:36:47.107Z,12.00
2022-10-31T17:39:04.343Z,11.97
2022-10-31T17:41:21.756Z,11.91
2022-10-31T17:43:38.797Z,11.85
2022-10-31T17:45:56.110Z,11.85
2022-10-31T17:48:13.336Z,11.81
2022-10-31T17:50:30.278Z,11.80
2022-10-31T17:52:47.569Z,11.76
2022-10-31T17:55:04.663Z,11.73
2022-10-31T17:57:22.994Z,11.70
2022-10-31T17:59:40.035Z,11.64
2022-10-31T18:01:57.195Z,11.60
2022-10-31T18:04:14.293Z,11.57
2022-10-31T18:06:31.547Z,11.50
2022-10-31T18:08:48.583Z,11.50
2022-10-31T18:11:05.643Z,11.48
2022-10-31T18:13:22.646Z,11.40
2022-10-31T18:15:42.074Z,11.34
2022-10-31T18:17:59.778Z,11.30
2022-10-31T18:20:17.103Z,11.23
2022-10-31T18:22:34.086Z,11.17
2022-10-31T18:24:51.330Z,11.14
2022-10-31T18:27:08.555Z,11.09
2022-10-31T18:29:25.616Z,11.06
2022-10-31T18:31:42.521Z,11.03
2022-10-31T18:33:59.755Z,10.98
2022-10-31T18:36:16.824Z,10.91
2022-10-31T18:38:33.826Z,10.85
2022-10-31T18:40:50.859Z,10.80
2022-10-31T18:43:07.796Z,10.78
2022-10-31T18:45:33.888Z,10.75
2022-10-31T18:48:01.990Z,10.70
2022-10-31T18:50:19.160Z,10.66
2022-10-31T18:52:36.276Z,10.60
2022-10-31T18:54:54.160Z,10.56
2022-10-31T18:57:11.430Z,10.49
2022-10-31T18:59:28.713Z,10.46
2022-10-31T19:01:46.158Z,10.46
2022-10-31T19:04:03.438Z,10.46
2022-10-31T19:06:20.355Z,10.41
2022-10-31T19:08:37.455Z,10.37
2022-10-31T19:10:55.392Z,10.32
2022-10-31T19:13:12.430Z,10.27
2022-10-31T19:15:30.400Z,10.19
2022-10-31T19:17:47.581Z,10.14
2022-10-31T19:20:04.907Z,10.12
2022-10-31T19:22:21.926Z,10.07
2022-10-31T19:24:40.769Z,10.06
2022-10-31T19:26:57.799Z,10.05
2022-10-31T19:29:14.855Z,10.07
2022-10-31T19:31:31.804Z,10.06
2022-10-31T19:33:48.855Z,10.03
2022-10-31T19:36:06.067Z,10.03
2022-10-31T19:38:25.131Z,10.06
2022-10-31T19:40:42.369Z,10.03
2022-10-31T19:42:59.664Z,10.00
2022-10-31T19:45:16.599Z,9.97
2022-10-31T19:47:33.551Z,9.94
2022-10-31T19:49:52.539Z,9.94
2022-10-31T19:52:09.606Z,9.91
2022-10-31T19:54:26.691Z,9.86
2022-10-31T19:56:44.612Z,9.83
2022-10-31T19:59:02.111Z,9.81
2022-10-31T20:01:19.207Z,9.79
2022-10-31T20:03:36.313Z,9.77
2022-10-31T20:05:53.463Z,9.75
2022-10-31T20:08:11.480Z,9.76
2022-10-31T20:10:28.769Z,9.77
2022-10-31T20:12:47.005Z,9.77
2022-10-31T20:15:04.155Z,9.77
2022-10-31T20:17:21.795Z,9.77
2022-10-31T20:19:39.198Z,9.79
2022-10-31T20:21:56.677Z,9.80
2022-10-31T20:24:13.939Z,9.79
2022-10-31T20:26:31.174Z,9.79
2022-10-31T20:28:49.143Z,9.84
2022-10-31T20:31:07.178Z,9.83
2022-10-31T20:33:24.487Z,9.82
2022-10-31T20:35:41.396Z,9.80
2022-10-31T20:37:58.628Z,9.83
2022-10-31T20:40:20.517Z,9.85
2022-10-31T20:42:37.577Z,9.86
2022-10-31T20:44:55.798Z,9.87
2022-10-31T20:47:13.177Z,9.88
2022-10-31T20:49:30.068Z,9.89
2022-10-31T20:51:47.033Z,9.92
2022-10-31T20:54:06.292Z,9.87
2022-10-31T20:56:25.951Z,9.85
2022-10-31T20:58:42.968Z,9.87
2022-10-31T21:01:01.087Z,9.84
2022-10-31T21:03:18.230Z,9.82
2022-10-31T21:05:35.216Z,9.80
2022-10-31T21:07:53.490Z,9.79
2022-10-31T21:10:10.722Z,9.83
2022-10-31T21:12:27.683Z,9.85
2022-10-31T21:14:44.891Z,9.85
2022-10-31T21:17:01.925Z,9.87
2022-10-31T21:19:18.833Z,9.87
2022-10-31T21:21:36.162Z,9.87
2022-10-31T21:23:53.399Z,9.91
2022-10-31T21:26:10.383Z,9.96
2022-10-31T21:28:28.491Z,9.98
2022-10-31T21:30:45.783Z,9.95
2022-10-31T21:33:02.754Z,9.95
2022-10-31T21:35:20.721Z,9.96
2022-10-31T21:37:37.798Z,9.96
2022-10-31T21:39:55.138Z,10.04
2022-10-31T21:42:12.983Z,10.14
2022-10-31T21:44:33.308Z,10.10
2022-10-31T21:46:50.243Z,10.09
2022-10-31T21:49:07.285Z,10.09
2022-10-31T21:51:25.525Z,10.10
2022-10-31T21:53:42.750Z,10.10
2022-10-31T21:55:59.803Z,10.11
2022-10-31T21:58:16.789Z,10.14
2022-10-31T22:00:33.791Z,10.17
2022-10-31T22:02:50.777Z,10.24
2022-10-31T22:05:09.562Z,10.28
2022-10-31T22:07:26.848Z,10.30
2022-10-31T22:09:45.687Z,10.32
2022-10-31T22:12:02.668Z,10.30
2022-10-31T22:14:20.630Z,10.28
2022-10-31T22:16:37.903Z,10.26
2022-10-31T22:18:54.934Z,10.26
2022-10-31T22:21:11.847Z,10.29
2022-10-31T22:23:29.138Z,10.27
2022-10-31T22:25:46.172Z,10.27
2022-10-31T22:28:04.431Z,10.27
2022-10-31T22:30:21.803Z,10.30
2022-10-31T22:32:38.725Z,10.30
2022-10-31T22:34:55.994Z,10.31
2022-10-31T22:37:17.265Z,10.34
2022-10-31T22:39:36.547Z,10.35
2022-10-31T22:41:53.565Z,10.38
2022-10-31T22:44:11.784Z,10.41
2022-10-31T22:46:29.221Z,10.44
2022-10-31T22:48:46.655Z,10.50
2022-10-31T22:51:04.789Z,10.45
2022-10-31T22:53:21.948Z,10.44
2022-10-31T22:55:38.909Z,10.40
2022-10-31T22:57:56.148Z,10.39
2022-10-31T23:00:13.291Z,10.39
2022-10-31T23:02:30.646Z,10.39
2022-10-31T23:04:50.908Z,10.36
2022-10-31T23:07:09.692Z,10.39
2022-10-31T23:09:29.624Z,10.35
2022-10-31T23:11:46.873Z,10.34
2022-10-31T23:14:04.539Z,10.33
2022-10-31T23:16:28.646Z,10.33
2022-10-31T23:18:49.964Z,10.30
2022-10-31T23:21:07.489Z,10.32
2022-10-31T23:23:24.916Z,10.33
2022-10-31T23:25:41.882Z,10.32
2022-10-31T23:28:00.250Z,10.30
2022-10-31T23:30:19.347Z,10.26
2022-10-31T23:32:39.486Z,10.28
2022-10-31T23:34:56.510Z,10.27
2022-10-31T23:37:13.778Z,10.28
2022-10-31T23:39:31.029Z,10.29
2022-10-31T23:41:48.246Z,10.29
2022-10-31T23:44:05.273Z,10.29
2022-10-31T23:46:22.246Z,10.29
2022-10-31T23:48:39.249Z,10.28
2022-10-31T23:50:56.485Z,10.28
2022-10-31T23:53:13.416Z,10.26
2022-10-31T23:55:30.721Z,10.24
2022-10-31T23:57:47.939Z,10.22
